createdAt,value
2023-12-11T00:00:32.591Z,5.10
2023-12-11T00:03:20.440Z,5.20
2023-12-11T00:05:49.360Z,5.20
2023-12-11T00:08:16.786Z,5.20
2023-12-11T00:10:44.616Z,5.10
2023-12-11T00:13:12.860Z,5.10
2023-12-11T00:15:41.697Z,5.20
2023-12-11T00:18:09.445Z,5.20
2023-12-11T00:20:37.572Z,5.10
2023-12-11T00:23:05.160Z,5.10
2023-12-11T00:25:33.337Z,5.10
2023-12-11T00:28:00.986Z,5.10
2023-12-11T00:30:28.959Z,5.20
2023-12-11T00:32:56.490Z,5.20
2023-12-11T00:35:24.917Z,5.20
2023-12-11T00:37:52.307Z,5.20
2023-12-11T00:40:20.593Z,5.00
2023-12-11T00:42:48.109Z,5.10
2023-12-11T00:45:16.452Z,5.10
2023-12-11T00:47:44.246Z,5.00
2023-12-11T00:50:12.085Z,5.10
2023-12-11T00:52:39.749Z,5.00
2023-12-11T00:55:08.383Z,5.00
2023-12-11T00:57:36.004Z,5.10
2023-12-11T01:00:04.234Z,5.10
2023-12-11T01:02:31.803Z,5.00
2023-12-11T01:04:59.639Z,5.00
2023-12-11T01:07:27.604Z,5.00
2023-12-11T01:09:56.930Z,5.10
2023-12-11T01:12:24.822Z,5.10
2023-12-11T01:14:52.582Z,5.00
2023-12-11T01:17:37.632Z,5.10
2023-12-11T01:20:09.167Z,5.10
2023-12-11T01:22:37.045Z,5.20
2023-12-11T01:25:05.170Z,5.20
2023-12-11T01:27:33.080Z,5.20
2023-12-11T01:30:00.985Z,5.20
2023-12-11T01:32:28.653Z,5.20
2023-12-11T01:34:56.397Z,5.20
2023-12-11T01:37:23.808Z,5.20
2023-12-11T01:39:51.645Z,5.20
2023-12-11T01:42:19.112Z,5.20
2023-12-11T01:44:46.898Z,5.20
2023-12-11T01:47:14.552Z,5.20
2023-12-11T01:49:42.769Z,5.20
2023-12-11T01:52:10.683Z,5.10
2023-12-11T01:54:40.709Z,5.10
2023-12-11T01:57:09.384Z,5.10
2023-12-11T01:59:38.724Z,5.10
2023-12-11T02:02:06.331Z,5.10
2023-12-11T02:04:34.340Z,5.10
2023-12-11T02:07:01.945Z,5.10
2023-12-11T02:09:29.756Z,5.10
2023-12-11T02:11:57.363Z,5.00
2023-12-11T02:14:25.054Z,5.00
2023-12-11T02:16:52.564Z,5.00
2023-12-11T02:19:20.684Z,5.00
2023-12-11T02:21:48.234Z,5.00
2023-12-11T02:24:30.652Z,4.90
2023-12-11T02:26:59.111Z,4.90
2023-12-11T02:29:27.063Z,4.90
2023-12-11T02:31:54.738Z,4.90
2023-12-11T02:34:22.671Z,4.90
2023-12-11T02:36:50.473Z,4.90
2023-12-11T02:39:18.229Z,4.90
2023-12-11T02:41:45.638Z,4.90
2023-12-11T02:44:13.454Z,4.80
2023-12-11T02:46:41.135Z,4.80
2023-12-11T02:49:09.273Z,4.90
2023-12-11T02:51:36.893Z,4.80
2023-12-11T02:54:04.784Z,4.80
2023-12-11T02:56:32.489Z,4.80
2023-12-11T02:59:00.193Z,4.80
2023-12-11T03:01:27.858Z,4.80
2023-12-11T03:03:55.759Z,4.80
2023-12-11T03:06:23.522Z,4.90
2023-12-11T03:08:51.415Z,4.90
2023-12-11T03:11:18.731Z,4.90
2023-12-11T03:13:46.613Z,4.80
2023-12-11T03:16:14.631Z,4.80
2023-12-11T03:18:42.978Z,4.80
2023-12-11T03:21:10.785Z,4.80
2023-12-11T03:23:41.111Z,4.80
2023-12-11T03:26:08.691Z,4.80
2023-12-11T03:28:36.602Z,4.80
2023-12-11T03:31:04.322Z,4.80
2023-12-11T03:33:32.184Z,4.80
2023-12-11T03:35:59.688Z,4.80
2023-12-11T03:38:27.386Z,4.80
2023-12-11T03:40:55.055Z,4.80
2023-12-11T03:43:22.936Z,4.80
2023-12-11T03:45:50.474Z,4.80
2023-12-11T03:48:18.416Z,4.80
2023-12-11T03:50:45.911Z,4.90
2023-12-11T03:53:13.629Z,4.90
2023-12-11T03:55:41.378Z,4.90
2023-12-11T03:58:09.205Z,4.90
2023-12-11T04:00:36.710Z,4.90
2023-12-11T04:03:04.728Z,4.90
2023-12-11T04:05:33.319Z,4.90
2023-12-11T04:08:01.093Z,4.90
2023-12-11T04:10:28.622Z,4.90
2023-12-11T04:12:56.414Z,4.90
2023-12-11T04:15:23.875Z,4.90
2023-12-11T04:17:51.606Z,4.90
2023-12-11T04:20:19.289Z,4.90
2023-12-11T04:22:47.025Z,4.90
2023-12-11T04:25:14.575Z,5.00
2023-12-11T04:27:42.389Z,4.90
2023-12-11T04:30:10.265Z,4.90
2023-12-11T04:32:38.359Z,4.80
2023-12-11T04:35:06.529Z,4.90
2023-12-11T04:37:34.340Z,4.90
2023-12-11T04:40:01.904Z,4.90
2023-12-11T04:42:30.127Z,4.90
2023-12-11T04:44:57.604Z,4.90
2023-12-11T04:47:25.440Z,4.90
2023-12-11T04:49:52.972Z,4.90
2023-12-11T04:52:20.878Z,4.80
2023-12-11T04:54:48.355Z,4.90
2023-12-11T04:57:17.211Z,4.90
2023-12-11T04:59:44.641Z,4.90
2023-12-11T05:02:12.501Z,4.90
2023-12-11T05:04:41.115Z,4.90
2023-12-11T05:07:09.046Z,4.90
2023-12-11T05:09:36.942Z,4.90
2023-12-11T05:12:05.319Z,4.90
2023-12-11T05:14:33.266Z,4.90
2023-12-11T05:17:00.996Z,4.90
2023-12-11T05:19:28.693Z,4.90
2023-12-11T05:21:59.953Z,4.90
2023-12-11T05:24:27.560Z,4.90
2023-12-11T05:26:55.810Z,5.00
2023-12-11T05:29:24.242Z,5.00
2023-12-11T05:31:52.102Z,4.90
2023-12-11T05:34:19.604Z,5.00
2023-12-11T05:36:47.548Z,5.00
2023-12-11T05:39:15.320Z,5.00
2023-12-11T05:41:43.096Z,5.00
2023-12-11T05:44:11.075Z,5.00
2023-12-11T05:46:39.127Z,4.90
2023-12-11T05:49:06.711Z,5.00
2023-12-11T05:51:34.562Z,5.00
2023-12-11T05:54:02.230Z,5.00
2023-12-11T05:56:31.706Z,5.00
2023-12-11T05:58:59.783Z,5.00
2023-12-11T06:01:28.637Z,5.00
2023-12-11T06:03:56.296Z,5.00
2023-12-11T06:06:24.308Z,5.00
2023-12-11T06:08:51.715Z,5.00
2023-12-11T06:11:19.638Z,5.00
2023-12-11T06:13:47.241Z,5.00
2023-12-11T06:16:15.540Z,5.00
2023-12-11T06:18:43.281Z,5.00
2023-12-11T06:21:21.284Z,5.00
2023-12-11T06:23:48.985Z,5.00
2023-12-11T06:26:33.087Z,5.00
2023-12-11T06:29:01.906Z,5.00
2023-12-11T06:31:31.197Z,5.00
2023-12-11T06:33:58.881Z,5.00
2023-12-11T06:36:29.629Z,5.00
2023-12-11T06:38:57.432Z,5.00
2023-12-11T06:41:26.346Z,5.00
2023-12-11T06:43:55.336Z,5.00
2023-12-11T06:46:23.213Z,5.00
2023-12-11T06:48:50.817Z,5.00
2023-12-11T06:51:19.437Z,5.00
2023-12-11T06:53:46.978Z,5.00
2023-12-11T06:56:23.340Z,5.00
2023-12-11T06:58:51.328Z,5.00
2023-12-11T07:01:19.971Z,4.90
2023-12-11T07:03:49.713Z,4.90
2023-12-11T07:06:18.835Z,5.00
2023-12-11T07:08:46.616Z,5.00
2023-12-11T07:11:14.474Z,5.00
2023-12-11T07:13:46.235Z,5.00
2023-12-11T07:16:14.213Z,5.00
2023-12-11T07:18:43.261Z,5.00
2023-12-11T07:21:12.108Z,5.10
2023-12-11T07:23:40.177Z,5.00
2023-12-11T07:26:11.554Z,5.10
2023-12-11T07:28:40.070Z,5.10
2023-12-11T07:31:10.356Z,5.00
2023-12-11T07:33:38.052Z,5.10
2023-12-11T07:36:06.442Z,5.00
2023-12-11T07:38:33.970Z,5.00
2023-12-11T07:41:03.645Z,5.00
2023-12-11T07:43:32.755Z,5.00
2023-12-11T07:46:02.001Z,5.00
2023-12-11T07:48:30.562Z,5.00
2023-12-11T07:50:58.627Z,5.10
2023-12-11T07:53:26.003Z,5.10
2023-12-11T07:55:53.704Z,5.10
2023-12-11T07:58:21.324Z,5.00
2023-12-11T08:00:49.341Z,5.00
2023-12-11T08:03:17.039Z,5.00
2023-12-11T08:05:45.203Z,5.00
2023-12-11T08:08:13.449Z,5.10
2023-12-11T08:10:41.452Z,5.10
2023-12-11T08:13:14.130Z,5.20
2023-12-11T08:15:41.902Z,5.20
2023-12-11T08:18:09.379Z,5.20
2023-12-11T08:20:38.738Z,5.20
2023-12-11T08:23:06.480Z,5.20
2023-12-11T08:25:34.663Z,5.20
2023-12-11T08:28:02.073Z,5.20
2023-12-11T08:30:29.769Z,5.20
2023-12-11T08:32:57.386Z,5.20
2023-12-11T08:35:25.128Z,5.20
2023-12-11T08:37:52.509Z,5.20
2023-12-11T08:40:21.798Z,5.20
2023-12-11T08:42:49.348Z,5.20
2023-12-11T08:45:17.091Z,5.30
2023-12-11T08:47:45.390Z,5.30
2023-12-11T08:50:13.351Z,5.30
2023-12-11T08:52:43.319Z,5.40
2023-12-11T08:55:11.583Z,5.40
2023-12-11T08:57:42.447Z,5.50
2023-12-11T09:00:11.531Z,5.60
2023-12-11T09:02:39.258Z,5.60
2023-12-11T09:05:07.335Z,5.70
2023-12-11T09:07:34.899Z,5.60
2023-12-11T09:10:04.026Z,5.50
2023-12-11T09:12:34.026Z,5.60
2023-12-11T09:15:02.566Z,5.70
2023-12-11T09:17:31.220Z,5.70
2023-12-11T09:19:59.574Z,5.80
2023-12-11T09:22:27.385Z,5.80
2023-12-11T09:24:55.622Z,5.70
2023-12-11T09:27:23.287Z,5.80
2023-12-11T09:29:51.434Z,5.90
2023-12-11T09:32:19.016Z,5.90
2023-12-11T09:34:47.936Z,6.00
2023-12-11T09:37:20.790Z,6.00
2023-12-11T09:39:50.055Z,6.00
2023-12-11T09:42:19.218Z,5.90
2023-12-11T09:44:48.629Z,6.00
2023-12-11T09:47:21.156Z,6.10
2023-12-11T09:49:49.091Z,6.20
2023-12-11T09:52:16.867Z,6.30
2023-12-11T09:54:44.741Z,6.20
2023-12-11T09:57:17.123Z,6.30
2023-12-11T09:59:45.198Z,6.10
2023-12-11T10:02:16.905Z,6.10
2023-12-11T10:05:04.461Z,6.20
2023-12-11T10:07:36.158Z,6.20
2023-12-11T10:10:23.383Z,6.30
2023-12-11T10:12:51.414Z,6.40
2023-12-11T10:15:21.537Z,6.40
2023-12-11T10:18:01.967Z,6.50
2023-12-11T10:20:30.784Z,6.50
2023-12-11T10:23:02.181Z,6.60
2023-12-11T10:25:32.066Z,6.70
2023-12-11T10:28:07.896Z,6.80
2023-12-11T10:30:49.503Z,6.80
2023-12-11T10:33:19.790Z,6.90
2023-12-11T10:35:49.505Z,6.90
2023-12-11T10:38:25.115Z,6.90
2023-12-11T10:40:54.662Z,6.80
2023-12-11T10:43:22.754Z,7.00
2023-12-11T10:45:52.620Z,7.30
2023-12-11T10:48:22.703Z,7.40
2023-12-11T10:50:51.481Z,7.60
2023-12-11T10:53:20.449Z,7.60
2023-12-11T10:55:50.904Z,7.60
2023-12-11T10:58:19.812Z,7.40
2023-12-11T11:00:48.377Z,7.40
2023-12-11T11:03:17.549Z,7.30
2023-12-11T11:05:45.657Z,7.20
2023-12-11T11:08:13.277Z,7.20
2023-12-11T11:11:00.686Z,7.20
2023-12-11T11:14:13.331Z,7.20
2023-12-11T11:16:53.625Z,7.10
2023-12-11T11:19:21.626Z,7.30
2023-12-11T11:22:31.194Z,7.40
2023-12-11T11:25:32.255Z,7.60
2023-12-11T11:28:01.340Z,8.00
2023-12-11T11:30:45.377Z,8.30
2023-12-11T11:33:13.219Z,8.50
2023-12-11T11:35:46.713Z,8.90
2023-12-11T11:38:15.069Z,8.70
2023-12-11T11:40:45.379Z,8.80
2023-12-11T11:43:17.240Z,8.60
2023-12-11T11:45:45.198Z,8.40
2023-12-11T11:48:13.754Z,8.40
2023-12-11T11:50:53.437Z,8.30
2023-12-11T11:53:22.589Z,8.30
2023-12-11T11:55:50.550Z,8.20
2023-12-11T11:58:19.327Z,8.20
2023-12-11T12:00:48.158Z,8.10
2023-12-11T12:03:16.553Z,8.00
2023-12-11T12:05:57.116Z,8.10
2023-12-11T12:08:25.994Z,8.10
2023-12-11T12:10:58.152Z,8.00
2023-12-11T12:13:26.099Z,8.10
2023-12-11T12:15:54.582Z,8.10
2023-12-11T12:18:22.483Z,8.10
2023-12-11T12:21:06.132Z,8.10
2023-12-11T12:23:34.030Z,8.10
2023-12-11T12:26:04.090Z,8.10
2023-12-11T12:28:32.464Z,8.10
2023-12-11T12:31:00.070Z,8.10
2023-12-11T12:33:28.547Z,8.20
2023-12-11T12:35:56.741Z,8.10
2023-12-11T12:38:24.927Z,8.20
2023-12-11T12:40:54.963Z,8.10
2023-12-11T12:43:26.722Z,7.90
2023-12-11T12:46:01.812Z,7.80
2023-12-11T12:48:30.310Z,7.80
2023-12-11T12:51:11.221Z,7.80
2023-12-11T12:53:52.862Z,7.80
2023-12-11T12:56:24.846Z,7.90
2023-12-11T12:58:57.168Z,7.90
2023-12-11T13:01:24.822Z,7.90
2023-12-11T13:03:59.758Z,7.90
2023-12-11T13:06:28.066Z,7.80
2023-12-11T13:08:56.135Z,7.80
2023-12-11T13:11:38.279Z,7.80
2023-12-11T13:14:06.513Z,7.80
2023-12-11T13:16:33.969Z,7.80
2023-12-11T13:19:03.002Z,7.80
2023-12-11T13:21:30.783Z,7.70
2023-12-11T13:24:01.093Z,7.70
2023-12-11T13:26:30.451Z,7.70
2023-12-11T13:28:58.572Z,7.70
2023-12-11T13:31:26.537Z,7.80
2023-12-11T13:33:54.498Z,7.90
2023-12-11T13:36:21.998Z,7.80
2023-12-11T13:38:50.489Z,7.80
2023-12-11T13:41:17.991Z,7.80
2023-12-11T13:43:46.255Z,7.80
2023-12-11T13:46:13.623Z,7.70
2023-12-11T13:48:41.800Z,7.80
2023-12-11T13:51:09.735Z,7.80
2023-12-11T13:53:37.841Z,7.70
2023-12-11T13:56:06.083Z,7.60
2023-12-11T13:58:34.028Z,7.50
2023-12-11T14:01:02.127Z,7.40
2023-12-11T14:03:30.397Z,7.30
2023-12-11T14:05:57.864Z,7.30
2023-12-11T14:08:25.661Z,7.40
2023-12-11T14:10:54.948Z,7.40
2023-12-11T14:13:23.143Z,7.40
2023-12-11T14:15:50.647Z,7.40
2023-12-11T14:18:18.461Z,7.40
2023-12-11T14:20:45.982Z,7.40
2023-12-11T14:23:13.764Z,7.40
2023-12-11T14:25:41.566Z,7.40
2023-12-11T14:28:09.680Z,7.30
2023-12-11T14:30:38.395Z,7.30
2023-12-11T14:33:07.200Z,7.30
2023-12-11T14:35:35.523Z,7.30
2023-12-11T14:38:03.559Z,7.20
2023-12-11T14:40:31.234Z,7.20
2023-12-11T14:43:01.087Z,7.20
2023-12-11T14:45:31.611Z,7.20
2023-12-11T14:47:59.364Z,7.20
2023-12-11T14:50:26.746Z,7.20
2023-12-11T14:52:54.563Z,7.20
2023-12-11T14:55:25.538Z,7.10
2023-12-11T14:57:54.490Z,7.10
2023-12-11T15:00:22.093Z,7.20
2023-12-11T15:02:49.818Z,7.20
2023-12-11T15:05:18.550Z,7.20
2023-12-11T15:07:48.200Z,7.30
2023-12-11T15:10:15.764Z,7.10
2023-12-11T15:12:43.559Z,7.20
2023-12-11T15:15:11.727Z,7.10
2023-12-11T15:17:39.642Z,7.10
2023-12-11T15:20:11.703Z,7.20
2023-12-11T15:22:39.986Z,7.10
2023-12-11T15:25:10.833Z,7.10
2023-12-11T15:27:39.612Z,7.00
2023-12-11T15:30:09.135Z,7.00
2023-12-11T15:32:37.436Z,6.90
2023-12-11T15:35:05.474Z,7.00
2023-12-11T15:37:33.698Z,6.90
2023-12-11T15:40:01.450Z,6.90
2023-12-11T15:42:29.264Z,6.90
2023-12-11T15:44:57.203Z,6.90
2023-12-11T15:47:25.028Z,6.90
2023-12-11T15:49:53.241Z,6.90
2023-12-11T15:52:21.038Z,7.00
2023-12-11T15:54:48.632Z,7.00
2023-12-11T15:57:16.471Z,7.00
2023-12-11T15:59:45.147Z,7.00
2023-12-11T16:02:14.069Z,6.90
2023-12-11T16:04:41.622Z,6.90
2023-12-11T16:07:09.481Z,6.90
2023-12-11T16:09:38.414Z,6.90
2023-12-11T16:12:07.277Z,6.90
2023-12-11T16:14:34.667Z,6.90
2023-12-11T16:17:02.662Z,6.90
2023-12-11T16:19:33.274Z,6.80
2023-12-11T16:22:01.155Z,6.90
2023-12-11T16:24:28.774Z,6.90
2023-12-11T16:26:56.403Z,6.90
2023-12-11T16:29:23.853Z,6.80
2023-12-11T16:31:56.580Z,6.90
2023-12-11T16:34:24.658Z,6.90
2023-12-11T16:36:52.894Z,6.80
2023-12-11T16:39:21.087Z,6.80
2023-12-11T16:41:49.309Z,6.80
2023-12-11T16:44:17.203Z,6.80
2023-12-11T16:46:45.416Z,6.80
2023-12-11T16:49:16.007Z,6.80
2023-12-11T16:51:44.781Z,6.80
2023-12-11T16:54:12.501Z,6.80
2023-12-11T16:56:41.389Z,6.70
2023-12-11T16:59:08.871Z,6.70
2023-12-11T17:01:36.700Z,6.70
2023-12-11T17:04:04.252Z,6.70
2023-12-11T17:06:33.476Z,6.70
2023-12-11T17:09:01.634Z,6.70
2023-12-11T17:11:35.171Z,6.60
2023-12-11T17:14:03.058Z,6.70
2023-12-11T17:16:30.921Z,6.70
2023-12-11T17:18:58.636Z,6.60
2023-12-11T17:21:31.930Z,6.60
2023-12-11T17:24:04.022Z,6.50
2023-12-11T17:26:31.907Z,6.60
2023-12-11T17:29:00.277Z,6.50
2023-12-11T17:31:28.080Z,6.60
2023-12-11T17:33:55.552Z,6.50
2023-12-11T17:36:23.345Z,6.50
2023-12-11T17:38:51.051Z,6.50
2023-12-11T17:41:18.789Z,6.60
2023-12-11T17:43:46.444Z,6.60
2023-12-11T17:46:14.219Z,6.60
2023-12-11T17:48:41.803Z,6.70
2023-12-11T17:51:11.470Z,6.80
2023-12-11T17:53:39.709Z,6.80
2023-12-11T17:56:10.671Z,6.90
2023-12-11T17:58:39.703Z,6.80
2023-12-11T18:01:10.187Z,6.80
2023-12-11T18:03:37.963Z,6.80
2023-12-11T18:06:06.682Z,6.90
2023-12-11T18:08:34.364Z,6.90
2023-12-11T18:11:02.094Z,6.90
2023-12-11T18:13:29.477Z,7.00
2023-12-11T18:15:57.456Z,7.00
2023-12-11T18:18:25.154Z,7.00
2023-12-11T18:20:52.955Z,7.00
2023-12-11T18:23:20.562Z,7.10
2023-12-11T18:25:48.234Z,7.10
2023-12-11T18:28:16.219Z,7.00
2023-12-11T18:30:44.128Z,7.00
2023-12-11T18:33:11.626Z,6.90
2023-12-11T18:35:39.472Z,6.90
2023-12-11T18:38:07.081Z,6.90
2023-12-11T18:40:35.015Z,6.90
2023-12-11T18:43:03.282Z,6.80
2023-12-11T18:45:31.073Z,6.80
2023-12-11T18:47:58.660Z,6.80
2023-12-11T18:50:26.384Z,6.80
2023-12-11T18:52:56.990Z,6.80
2023-12-11T18:55:25.802Z,6.90
2023-12-11T18:57:53.676Z,6.80
2023-12-11T19:00:21.873Z,6.80
2023-12-11T19:02:50.035Z,6.90
2023-12-11T19:05:18.553Z,6.90
2023-12-11T19:07:46.619Z,6.90
2023-12-11T19:10:14.542Z,6.90
2023-12-11T19:12:42.305Z,6.90
2023-12-11T19:15:10.251Z,6.90
2023-12-11T19:17:37.807Z,6.80
2023-12-11T19:20:06.661Z,6.80
2023-12-11T19:22:34.136Z,6.80
2023-12-11T19:25:02.036Z,6.80
2023-12-11T19:27:29.577Z,6.80
2023-12-11T19:29:57.639Z,6.70
2023-12-11T19:32:25.251Z,6.80
2023-12-11T19:34:53.602Z,6.80
2023-12-11T19:37:21.193Z,6.80
2023-12-11T19:39:49.687Z,6.70
2023-12-11T19:42:17.325Z,6.70
2023-12-11T19:44:45.026Z,6.60
2023-12-11T19:47:14.618Z,6.60
2023-12-11T19:49:42.706Z,6.60
2023-12-11T19:52:10.236Z,6.70
2023-12-11T19:54:41.015Z,6.80
2023-12-11T19:57:08.573Z,6.70
2023-12-11T19:59:36.378Z,6.70
2023-12-11T20:02:06.341Z,6.70
2023-12-11T20:04:37.455Z,6.60
2023-12-11T20:07:05.339Z,6.60
2023-12-11T20:09:33.900Z,6.60
2023-12-11T20:12:10.782Z,6.60
2023-12-11T20:14:42.106Z,6.60
2023-12-11T20:17:09.592Z,6.60
2023-12-11T20:19:37.881Z,6.60
2023-12-11T20:22:05.814Z,6.60
2023-12-11T20:24:33.846Z,6.60
2023-12-11T20:27:01.283Z,6.60
2023-12-11T20:29:29.338Z,6.50
2023-12-11T20:31:56.815Z,6.50
2023-12-11T20:34:24.967Z,6.50
2023-12-11T20:36:53.506Z,6.50
2023-12-11T20:39:21.338Z,6.60
2023-12-11T20:41:48.912Z,6.60
2023-12-11T20:44:17.313Z,6.60
2023-12-11T20:46:45.187Z,6.60
2023-12-11T20:49:13.443Z,6.60
2023-12-11T20:51:43.589Z,6.60
2023-12-11T20:54:12.093Z,6.60
2023-12-11T20:56:39.562Z,6.60
2023-12-11T20:59:09.209Z,6.60
2023-12-11T21:01:38.022Z,6.60
2023-12-11T21:04:08.547Z,6.50
2023-12-11T21:06:36.476Z,6.60
2023-12-11T21:09:09.142Z,6.60
2023-12-11T21:11:37.080Z,6.60
2023-12-11T21:14:05.138Z,6.60
2023-12-11T21:16:35.729Z,6.60
2023-12-11T21:19:04.325Z,6.50
2023-12-11T21:21:31.955Z,6.50
2023-12-11T21:23:59.577Z,6.50
2023-12-11T21:26:29.812Z,6.50
2023-12-11T21:28:58.285Z,6.50
2023-12-11T21:31:27.205Z,6.40
2023-12-11T21:33:55.920Z,6.50
2023-12-11T21:36:30.885Z,6.40
2023-12-11T21:38:59.532Z,6.50
2023-12-11T21:41:27.403Z,6.60
2023-12-11T21:43:57.707Z,6.60
2023-12-11T21:46:29.052Z,6.60
2023-12-11T21:49:02.732Z,6.70
2023-12-11T21:51:30.901Z,6.70
2023-12-11T21:53:59.040Z,6.70
2023-12-11T21:56:27.216Z,6.70
2023-12-11T21:58:55.255Z,6.70
2023-12-11T22:01:23.110Z,6.70
2023-12-11T22:03:51.850Z,6.80
2023-12-11T22:06:19.741Z,6.80
2023-12-11T22:08:49.812Z,6.80
2023-12-11T22:11:18.311Z,6.70
2023-12-11T22:13:46.545Z,6.80
2023-12-11T22:16:16.101Z,6.80
2023-12-11T22:18:46.884Z,6.80
2023-12-11T22:21:23.920Z,6.80
2023-12-11T22:23:53.768Z,6.80
2023-12-11T22:26:22.281Z,6.80
2023-12-11T22:28:50.014Z,6.80
2023-12-11T22:31:17.642Z,6.80
2023-12-11T22:33:45.530Z,6.90
2023-12-11T22:36:22.347Z,6.90
2023-12-11T22:38:50.510Z,6.90
2023-12-11T22:41:28.893Z,6.80
2023-12-11T22:43:56.776Z,6.90
2023-12-11T22:46:25.037Z,6.90
2023-12-11T22:48:53.836Z,6.90
2023-12-11T22:51:22.009Z,6.90
2023-12-11T22:53:49.728Z,6.90
2023-12-11T22:56:17.306Z,6.80
2023-12-11T22:58:45.331Z,6.80
2023-12-11T23:01:12.767Z,6.80
2023-12-11T23:03:40.450Z,6.90
2023-12-11T23:06:12.638Z,6.90
2023-12-11T23:08:40.513Z,6.90
2023-12-11T23:11:08.365Z,7.00
2023-12-11T23:13:36.170Z,7.00
2023-12-11T23:16:03.909Z,7.00
2023-12-11T23:18:31.701Z,6.90
2023-12-11T23:20:59.120Z,7.00
2023-12-11T23:23:26.920Z,7.00
2023-12-11T23:25:58.931Z,6.90
2023-12-11T23:28:32.251Z,7.00
2023-12-11T23:30:59.735Z,7.00
2023-12-11T23:33:27.490Z,7.00
2023-12-11T23:35:54.939Z,6.90
2023-12-11T23:38:22.562Z,6.90
2023-12-11T23:40:50.730Z,6.90
2023-12-11T23:43:18.526Z,7.00
2023-12-11T23:45:46.662Z,7.00
2023-12-11T23:48:14.528Z,7.00
2023-12-11T23:50:42.047Z,7.00
2023-12-11T23:53:09.744Z,7.00
2023-12-11T23:55:37.268Z,7.00
2023-12-11T23:58:05.229Z,7.00
